Aérodrome :
LOGIN :

S'inscrire | Disclaimer

   EN    FR    IT 

 










Légende :    VFR   VFR Marginal   IFR   IFR Intensif   IFR Très Intensif
Visi : 
Plafond : 
>= 8 km
>= 3000ft
5 à 8 km
1000 à 3000 ft
1500m à 5 km
500 à 1000 ft
800 à 1500m
200 à 500 ft
< 800m
< 200 ft
Symboles :   Orages  Brouillard  Fortes neiges  Fortes précipitations  Vent > 20 kt
SIGMETs :   Divers  Orages  Givrage  Turbulence  Onde Orograph.  Cendres Volcan.







- Altitude de l'aérodrome : 160 ft
- Code IATA : FMO


EDDG - Münster Osnabrück Int.

DERNIER METAR :
  • 210250Z 20005KT 170V240 CAVOK 16/13 Q1013 BECMG 25010KT BKN009

METARs EXPIRÉS :
  • 210220Z 19004KT CAVOK 15/13 Q1014 BECMG 25010KT
  • 210150Z 20004KT 170V240 CAVOK 16/13 Q1014 NOSIG
  • 210120Z 23003KT 200V270 CAVOK 17/13 Q1014 NOSIG
  • 210050Z 18004KT 160V220 CAVOK 16/13 Q1015 NOSIG
  • 210020Z 22004KT CAVOK 18/13 Q1015 NOSIG
  • 202350Z 22003KT CAVOK 16/13 Q1015 NOSIG

TAF TAF EDDG
Valide du 21 à 00h jusqu'au 22 à 00h UTC


202300Z 2100/2124 24004KT CAVOK
BECMG 2103/2105 25010KT BKN012
PROB30
TEMPO 2105/2108 RA BKN008
BECMG 2107/2109 29015G25KT FEW030
BECMG 2110/2112 30020G35KT
BECMG 2116/2118 29015G25KT
BECMG 2118/2121 27010KT
Pas de NOTAMs connus pour ce terrain.



MET'MAP, la Météo Aéronautique d'un coup d'oeil ! - Copyright ORBIFLY Décembre 2007 - Disclaimer

ORBIFLY MET'MAP TEAM :

Programmation & Développement : Alexandra Zaïnal
Conception & Développement : Baudouin d'Aumeries
Co-Programmation & Développement : Marc-Olivier Méhu
Soutien technique & logistique : Manuel Goepfert

Contact : metmap@orbifly.com




SOURCES & CREDITS :

   NOAA